Victoria, MS (38679)

10:25 PM CDT on August 20, 2014 (GMT -0500)
Oak Hill Downs | Change Station
CLOSE
Current Station
Personal Weather Station
Location: Moscow, TN
Elevation: 443 ft
Nearby Weather Stations

Elev 443 ft 35.10 °N, 89.43 °W | Updated 10 seconds ago

Clear
Clear
78.3 °F
Feels Like 81 °F
N
0.0
Wind Variable Wind from SW
Gusts 0.0 mph

Today
High -- | Low -- °F
--% Chance of Precip.
Yesterday
High -- | Low -- °F
Precip. -- in
6:22 AM 7:40 PM
Waning Crescent, 17% visible
Pressure 30.07 in
Visibility 8.0 miles
Clouds Clear
Heat Index 81 °F
Dew Point 71 °F
Humidity 78%
Rainfall 0.00 in
Snow Depth Not available.
UV 0 out of 12
Pollen 9.10 out of 12
Ozone Good
PM2.5 Moderate
Flu Activity Not available.
METAR KOLV 210315Z AUTO 18005KT 8SM CLR 24/24 A3007 RMK A01 P000

More Conditions Fewer Conditions

Pressure 30.07 in
Visibility 8.0 miles
Clouds Clear
Heat Index 81 °F
Dew Point 71 °F
Humidity 78%
Rainfall 0.00 in
Snow Depth Not available.
UV 0 out of 12
Pollen 9.10 out of 12
Ozone Good
PM2.5 Moderate
Flu Activity Not available.
METAR KOLV 210315Z AUTO 18005KT 8SM CLR 24/24 A3007 RMK A01 P000

More Conditions Fewer Conditions

10-Day Weather Forecast

Almanac

Astronomy

Aug. 20, 2014 Rise Set
Actual Time 6:22 AM CDT 7:40 PM CDT
Civil Twilight 5:55 AM CDT 8:06 PM CDT
Nautical Twilight 5:23 AM CDT 8:38 PM CDT
Astronomical Twilight 4:50 AM CDT 9:10 PM CDT
Moon 2:06 AM CDT (8/20) 4:21 PM CDT (8/20)
Length of Visible Light 14h 11m
Length of Day
13h 18m
Tomorrow will be 1m 59s shorter.
Waning Crescent, 17% of the Moon is Illuminated
Today
Waning Crescent
Aug 25
New
Sep 2
First Quarter
Sep 8
Full
Sep 15
Last Quarter

Today's Extremes

State Highs State Lows

Community

WunderPhotos

Upload Photos

1,745,841 photos uploaded!

Nearby

Air Quality

  Air Quality AQ Index Pollutant
Yesterday Moderate
PM2.5
Yesterday Good
OZONE
Current Moderate
PM2.5
Current Good
OZONE
Wednesday Moderate
PM2.5
Wednesday Good
OZONE
Thursday Moderate
PM2.5
Thursday Good
OZONE
Friday Moderate
PM2.5
Friday Moderate
OZONE

Snow Depth

Station Depth Elevation
No new snow has been reported.

Earthquake Activity

City Distance Mag. Time & Date
No recent earthquake activity has been reported nearby.
Minimum magnitude displayed is 2.5.

Coastal Water Temperatures

Place Temperature
No Stations Reporting

Nearby Weather Stations